Time;durP1;ratioP1;P1;durP2;ratioP2;P2;SDS_P1;SDS_P2;PMS_P1;PMS_P2;Temp;Humidity;BMP_temperature;BMP_pressure;BME280_temperature;BME280_humidity;BME280_pressure;Samples;Min_cycle;Max_cycle;Signal;HPM_P1;HPM_P2
2023/10/20 00:01:49;;;;;;;;;;;;;;;18.04;64.10;100998.09;4950895;29;20014;-89
2023/10/20 00:04:16;;;;;;;;;;;;;;;18.07;64.11;100996.41;4923598;28;20021;-88
2023/10/20 00:06:50;;;;;;;;;;;;;;;18.05;64.34;100992.81;4940585;28;20545;-89
2023/10/20 00:09:18;;;;;;;;;;;;;;;18.08;64.41;100992.91;4957832;28;19980;-88
2023/10/20 00:12:14;;;;;;;;;;;;;;;18.03;63.98;100984.00;4957324;28;19918;-89
2023/10/20 00:14:40;;;;;;;;;;;;;;;18.09;63.77;100983.22;4945721;28;19914;-88
2023/10/20 00:17:39;;;;;;;;;;;;;;;18.09;63.79;100985.88;4955880;28;19981;-87
2023/10/20 00:20:05;;;;;;;;;;;;;;;18.08;63.87;100978.81;4967206;28;19981;-89
2023/10/20 00:22:30;;;;;;;;;;;;;;;18.05;63.75;100968.16;4952421;28;19957;-89
2023/10/20 00:24:55;;;;;;;;;;;;;;;18.04;64.19;100963.72;4957703;28;19914;-89
2023/10/20 00:27:21;;;;;;;;;;;;;;;18.05;63.96;100962.88;4947489;28;19925;-89
2023/10/20 00:29:47;;;;;;;;;;;;;;;18.03;64.40;100976.06;4951668;28;19969;-89
2023/10/20 00:32:12;;;;;;;;;;;;;;;18.05;64.12;100969.03;4934105;28;19914;-89
2023/10/20 00:34:40;;;;;;;;;;;;;;;18.09;63.95;100967.38;4973690;28;19918;-89
2023/10/20 00:37:06;;;;;;;;;;;;;;;18.04;64.13;100956.69;4939670;28;19918;-88
2023/10/20 00:39:34;;;;;;;;;;;;;;;18.07;63.98;100958.50;4942020;28;19950;-89
2023/10/20 00:42:00;;;;;;;;;;;;;;;18.06;63.90;100957.63;4950152;29;19921;-89
2023/10/20 00:44:25;;;;;;;;;;;;;;;18.10;63.99;100961.25;4943312;28;19922;-88
2023/10/20 00:46:53;;;;;;;;;;;;;;;18.02;64.02;100965.44;4956389;28;20320;-89
2023/10/20 00:49:19;;;;;;;;;;;;;;;18.06;64.09;100962.03;4933541;28;19951;-89
2023/10/20 00:51:45;;;;;;;;;;;;;;;18.04;64.04;100954.03;4951189;28;19925;-90
2023/10/20 00:54:13;;;;;;;;;;;;;;;18.05;63.80;100953.19;4957013;28;19918;-88
2023/10/20 00:56:40;;;;;;;;;;;;;;;18.04;63.80;100942.59;4960391;28;19918;-88
2023/10/20 00:59:06;;;;;;;;;;;;;;;18.06;63.98;100944.41;4960371;28;19922;-87
2023/10/20 01:01:32;;;;;;;;;;;;;;;18.08;63.79;100941.81;4941907;28;19922;-89
2023/10/20 01:03:58;;;;;;;;;;;;;;;18.05;64.09;100939.97;4957392;28;19914;-88
2023/10/20 01:06:25;;;;;;;;;;;;;;;18.05;63.89;100941.72;4941286;28;19964;-88
2023/10/20 01:09:00;;;;;;;;;;;;;;;18.04;63.76;100939.94;4936248;29;19978;-90
2023/10/20 01:11:25;;;;;;;;;;;;;;;18.08;63.64;100942.72;4928402;28;20005;-89
2023/10/20 01:13:53;;;;;;;;;;;;;;;18.04;63.70;100932.91;4944495;28;19969;-89
2023/10/20 01:16:18;;;;;;;;;;;;;;;18.06;63.84;100939.13;4957882;28;19977;-90
2023/10/20 01:18:48;;;;;;;;;;;;;;;17.98;64.08;100943.31;4955380;28;19926;-90
2023/10/20 01:21:20;;;;;;;;;;;;;;;18.02;63.89;100933.72;4947482;28;19922;-92
2023/10/20 01:23:53;;;;;;;;;;;;;;;18.06;63.75;100941.78;4942234;28;19918;-90
2023/10/20 01:26:19;;;;;;;;;;;;;;;18.05;64.00;100944.38;4941568;28;19962;-90
2023/10/20 01:28:45;;;;;;;;;;;;;;;18.00;63.91;100941.59;4939914;28;20475;-90
2023/10/20 01:31:12;;;;;;;;;;;;;;;18.02;64.00;100941.66;4941867;28;20004;-90
2023/10/20 01:33:39;;;;;;;;;;;;;;;18.01;63.92;100942.50;4940830;28;19918;-90
2023/10/20 01:36:06;;;;;;;;;;;;;;;18.02;64.19;100944.31;4941018;28;19922;-89
2023/10/20 01:38:41;;;;;;;;;;;;;;;18.01;64.06;100937.22;4922816;29;19915;-91
2023/10/20 01:41:10;;;;;;;;;;;;;;;18.00;64.20;100935.44;4952483;28;19957;-90
2023/10/20 01:43:35;;;;;;;;;;;;;;;18.02;63.98;100934.63;4953586;28;19925;-88
2023/10/20 01:46:03;;;;;;;;;;;;;;;18.01;63.80;100934.56;4950174;28;19918;-90
2023/10/20 01:48:32;;;;;;;;;;;;;;;18.03;63.77;100936.41;4936687;29;19919;-91
2023/10/20 01:51:08;;;;;;;;;;;;;;;18.04;63.70;100939.94;4938395;29;19922;-90
2023/10/20 01:53:37;;;;;;;;;;;;;;;18.03;63.89;100940.78;4954318;28;19915;-90
2023/10/20 01:56:05;;;;;;;;;;;;;;;18.02;63.83;100945.19;4944905;28;19925;-90
2023/10/20 01:58:30;;;;;;;;;;;;;;;18.01;63.68;100948.69;4938059;28;19918;-89
2023/10/20 02:00:57;;;;;;;;;;;;;;;18.02;63.74;100945.19;4955020;28;20057;-90
2023/10/20 02:03:23;;;;;;;;;;;;;;;18.03;63.94;100936.41;4937999;28;20041;-91
2023/10/20 02:05:51;;;;;;;;;;;;;;;18.04;63.58;100947.88;4956313;28;20001;-91
2023/10/20 02:08:17;;;;;;;;;;;;;;;18.00;63.71;100944.25;4957117;28;19914;-91
2023/10/20 02:10:51;;;;;;;;;;;;;;;18.00;63.66;100943.38;4954523;28;19918;-90
2023/10/20 02:13:19;;;;;;;;;;;;;;;18.03;63.47;100932.84;4940530;28;19969;-91
2023/10/20 02:15:50;;;;;;;;;;;;;;;18.03;63.60;100932.84;4944400;28;19914;-91
2023/10/20 02:18:17;;;;;;;;;;;;;;;18.00;63.58;100938.97;4940398;28;20080;-90
2023/10/20 02:20:43;;;;;;;;;;;;;;;18.01;63.65;100946.06;4938692;28;19922;-89
2023/10/20 02:23:08;;;;;;;;;;;;;;;18.00;63.53;100941.59;4955323;28;19925;-90
2023/10/20 02:25:34;;;;;;;;;;;;;;;18.00;63.58;100946.00;4972741;28;19914;-89
2023/10/20 02:28:00;;;;;;;;;;;;;;;18.03;63.62;100939.06;4955484;28;19914;-90
2023/10/20 02:30:27;;;;;;;;;;;;;;;17.99;63.45;100931.91;4953219;28;20318;-90
2023/10/20 02:32:54;;;;;;;;;;;;;;;18.00;63.56;100930.16;4954983;28;19973;-93
2023/10/20 02:35:20;;;;;;;;;;;;;;;17.98;63.62;100918.66;4940205;28;19924;-92
2023/10/20 02:37:47;;;;;;;;;;;;;;;17.90;63.81;100915.78;4940584;28;19922;-92
2023/10/20 02:40:18;;;;;;;;;;;;;;;17.96;63.73;100923.00;4934704;28;20000;-91
2023/10/20 02:42:48;;;;;;;;;;;;;;;17.99;63.69;100928.34;4947207;28;19914;-92
2023/10/20 02:45:26;;;;;;;;;;;;;;;18.00;63.59;100927.50;4956499;28;19965;-92
2023/10/20 02:47:52;;;;;;;;;;;;;;;17.98;63.45;100919.53;4937621;29;19914;-91
2023/10/20 02:50:27;;;;;;;;;;;;;;;17.95;63.74;100926.47;4940302;28;19980;-91
2023/10/20 02:53:00;;;;;;;;;;;;;;;17.95;64.00;100924.75;4957480;28;19985;-90
2023/10/20 02:55:37;;;;;;;;;;;;;;;17.93;63.61;100936.09;4932824;28;20001;-92
2023/10/20 02:58:04;;;;;;;;;;;;;;;17.95;63.93;100929.13;4960339;28;19961;-91
2023/10/20 03:00:45;;;;;;;;;;;;;;;17.93;63.97;100923.81;4944533;28;19914;-92
2023/10/20 03:03:13;;;;;;;;;;;;;;;17.93;63.51;100929.09;4943647;28;20419;-93
2023/10/20 03:05:50;;;;;;;;;;;;;;;17.90;63.62;100921.06;4961128;28;19965;-93
2023/10/20 03:08:26;;;;;;;;;;;;;;;17.89;63.45;100917.53;4956106;28;19925;-93
2023/10/20 03:10:51;;;;;;;;;;;;;;;17.90;63.66;100923.72;4941157;28;19957;-93
2023/10/20 03:13:22;;;;;;;;;;;;;;;17.93;63.44;100928.19;4943780;28;20325;-92
2023/10/20 03:15:56;;;;;;;;;;;;;;;17.88;63.66;100926.31;4960576;28;20009;-92
2023/10/20 03:18:23;;;;;;;;;;;;;;;17.92;63.17;100923.75;4941029;29;19922;-92
2023/10/20 03:21:00;;;;;;;;;;;;;;;17.93;63.29;100930.81;4941260;29;19919;-92
2023/10/20 03:23:28;;;;;;;;;;;;;;;17.88;63.46;100921.03;4956858;29;19925;-92
2023/10/20 03:25:55;;;;;;;;;;;;;;;17.88;63.60;100922.78;4939859;29;19919;-92
2023/10/20 03:28:22;;;;;;;;;;;;;;;17.90;63.31;100915.78;4939253;29;19922;-91
2023/10/20 03:30:48;;;;;;;;;;;;;;;17.92;63.37;100902.63;4951190;28;19914;-90
2023/10/20 03:33:15;;;;;;;;;;;;;;;17.92;63.43;100902.63;4951562;29;20372;-90
2023/10/20 03:35:45;;;;;;;;;;;;;;;17.94;63.22;100912.38;4943375;28;19921;-92
2023/10/20 03:38:14;;;;;;;;;;;;;;;17.88;63.25;100902.53;4939549;29;19949;-90
2023/10/20 03:40:46;;;;;;;;;;;;;;;17.90;63.42;100906.09;4955069;29;19918;-91
2023/10/20 03:43:12;;;;;;;;;;;;;;;17.88;63.42;100904.28;4956130;28;19922;-92
2023/10/20 03:45:51;;;;;;;;;;;;;;;17.88;63.17;100902.53;4956490;29;20027;-93
2023/10/20 03:51:30;;;;;;;;;;;;;;;17.88;63.09;100897.25;4945267;28;19926;-92
2023/10/20 03:56:59;;;;;;;;;;;;;;;17.85;63.10;100897.19;4957312;28;20324;-93
2023/10/20 03:59:25;;;;;;;;;;;;;;;17.85;63.14;100897.19;4940606;29;19918;-91
2023/10/20 04:01:51;;;;;;;;;;;;;;;17.85;63.19;100886.63;4959012;28;19914;-89
2023/10/20 04:04:17;;;;;;;;;;;;;;;17.86;63.25;100895.44;4954164;28;19940;-89
2023/10/20 04:06:44;;;;;;;;;;;;;;;17.86;63.07;100893.69;4955161;29;19915;-90
2023/10/20 04:09:13;;;;;;;;;;;;;;;17.83;63.23;100884.78;4942597;28;20352;-91
2023/10/20 04:11:43;;;;;;;;;;;;;;;17.79;63.03;100885.53;4953476;28;19964;-91
2023/10/20 04:14:12;;;;;;;;;;;;;;;17.87;63.00;100887.56;4939664;29;20016;-91
2023/10/20 04:16:41;;;;;;;;;;;;;;;17.84;62.81;100892.75;4954450;28;19922;-88
2023/10/20 04:19:09;;;;;;;;;;;;;;;17.82;63.58;100886.56;4937199;29;19926;-92
2023/10/20 04:21:38;;;;;;;;;;;;;;;17.78;63.27;100873.16;4949723;28;19918;-91
2023/10/20 04:24:06;;;;;;;;;;;;;;;17.83;63.18;100887.44;4954961;29;19970;-92
2023/10/20 04:26:42;;;;;;;;;;;;;;;17.83;63.23;100883.03;4950099;28;19919;-93
2023/10/20 04:43:41;;;;;;;;;;;;;;;17.80;63.17;100882.94;4919958;29;19941;-91
2023/10/20 04:52:05;;;;;;;;;;;;;;;17.78;63.20;100887.28;4902566;28;19957;-85
2023/10/20 04:54:51;;;;;;;;;;;;;;;17.75;63.17;100891.59;4947126;28;19961;-89
2023/10/20 04:57:39;;;;;;;;;;;;;;;17.73;63.27;100888.00;4936920;28;21863;-89
2023/10/20 05:02:45;;;;;;;;;;;;;;;17.76;63.19;100886.34;4954245;29;19986;-90
2023/10/20 05:05:26;;;;;;;;;;;;;;;17.78;63.27;100886.38;4949833;28;19968;-84
2023/10/20 05:07:51;;;;;;;;;;;;;;;17.67;62.82;100883.44;4951118;28;19919;-85
2023/10/20 05:10:20;;;;;;;;;;;;;;;17.49;63.16;100887.38;4950944;28;19921;-84
2023/10/20 05:12:46;;;;;;;;;;;;;;;17.44;63.46;100882.81;4949883;28;20009;-84
2023/10/20 05:15:12;;;;;;;;;;;;;;;17.50;63.51;100888.25;4938585;28;20019;-89
2023/10/20 05:17:37;;;;;;;;;;;;;;;17.58;63.38;100889.38;4935772;28;20009;-90
2023/10/20 05:20:05;;;;;;;;;;;;;;;17.66;63.53;100901.03;4950812;28;19918;-89
2023/10/20 05:22:32;;;;;;;;;;;;;;;17.70;63.38;100892.34;4950387;28;20017;-89
2023/10/20 05:24:57;;;;;;;;;;;;;;;17.69;63.53;100890.56;4951591;28;19973;-90
2023/10/20 05:27:46;;;;;;;;;;;;;;;17.72;63.14;100887.13;4936579;29;19922;-90
2023/10/20 05:30:11;;;;;;;;;;;;;;;17.70;63.24;100884.44;4946895;28;21451;-90
2023/10/20 05:33:11;;;;;;;;;;;;;;;17.64;63.37;100888.66;4935107;29;20005;-89
2023/10/20 05:35:37;;;;;;;;;;;;;;;17.69;63.71;100892.31;4948472;28;19925;-90
2023/10/20 05:38:08;;;;;;;;;;;;;;;17.72;63.50;100891.50;4932319;29;19923;-88
2023/10/20 05:40:35;;;;;;;;;;;;;;;17.73;63.53;100891.53;4948699;28;19934;-90
2023/10/20 05:43:05;;;;;;;;;;;;;;;17.68;63.52;100896.69;4936553;28;19918;-87
2023/10/20 05:45:39;;;;;;;;;;;;;;;17.66;63.80;100892.22;4953027;29;19918;-87
2023/10/20 05:48:05;;;;;;;;;;;;;;;17.66;63.92;100889.59;4939855;29;20281;-87
2023/10/20 05:50:38;;;;;;;;;;;;;;;17.70;63.64;100895.00;4946787;28;20316;-90
2023/10/20 05:53:05;;;;;;;;;;;;;;;17.69;63.66;100882.66;4933451;28;19923;-88
2023/10/20 05:55:32;;;;;;;;;;;;;;;17.69;63.58;100892.31;4948239;28;19926;-88
2023/10/20 05:57:58;;;;;;;;;;;;;;;17.68;63.72;100887.88;4947709;28;19923;-88
2023/10/20 06:00:24;;;;;;;;;;;;;;;17.70;63.75;100891.47;4946273;28;20404;-88
2023/10/20 06:02:49;;;;;;;;;;;;;;;17.71;63.82;100893.25;4934150;29;19922;-89
2023/10/20 06:05:15;;;;;;;;;;;;;;;17.67;63.77;100905.50;4939397;28;19989;-87
2023/10/20 06:07:41;;;;;;;;;;;;;;;17.63;63.90;100900.06;4946171;28;19919;-91
2023/10/20 06:10:11;;;;;;;;;;;;;;;17.69;63.92;100905.50;4932594;28;19996;-87
2023/10/20 06:12:37;;;;;;;;;;;;;;;17.71;64.27;100898.53;4928785;28;20020;-87
2023/10/20 06:15:02;;;;;;;;;;;;;;;17.67;64.10;100908.13;4945688;28;20038;-82
2023/10/20 06:17:28;;;;;;;;;;;;;;;17.67;64.37;100899.28;4948100;28;19930;-86
2023/10/20 06:19:53;;;;;;;;;;;;;;;17.60;64.26;100900.88;4935311;28;19981;-87
2023/10/20 06:22:19;;;;;;;;;;;;;;;17.59;64.53;100904.38;4946475;28;20396;-87
2023/10/20 06:24:47;;;;;;;;;;;;;;;17.55;64.73;100899.88;4971193;28;19918;-87
2023/10/20 06:27:13;;;;;;;;;;;;;;;17.55;64.78;100899.88;4949649;28;19918;-89
2023/10/20 06:29:56;;;;;;;;;;;;;;;17.62;64.53;100900.91;4949403;28;19928;-89
2023/10/20 06:35:09;;;;;;;;;;;;;;;17.53;64.99;100896.28;4963791;28;20442;-86
2023/10/20 06:37:46;;;;;;;;;;;;;;;17.52;65.00;100893.59;4963240;28;19933;-87
2023/10/20 06:40:15;;;;;;;;;;;;;;;17.46;64.90;100887.31;4962340;28;19922;-86
2023/10/20 06:42:41;;;;;;;;;;;;;;;17.49;64.98;100892.66;4949366;28;19936;-87
2023/10/20 06:45:07;;;;;;;;;;;;;;;17.49;64.78;100890.03;4950722;28;20570;-87
2023/10/20 06:47:34;;;;;;;;;;;;;;;17.43;65.37;100894.25;4949338;28;19995;-85
2023/10/20 06:50:00;;;;;;;;;;;;;;;17.41;65.36;100895.94;4953400;28;19914;-88
2023/10/20 06:52:26;;;;;;;;;;;;;;;17.45;65.43;100893.41;4950674;28;20553;-87
2023/10/20 06:54:56;;;;;;;;;;;;;;;17.39;65.54;100889.72;4950510;28;19925;-88
2023/10/20 06:57:22;;;;;;;;;;;;;;;17.38;65.42;100888.84;4935143;28;19922;-88
2023/10/20 06:59:50;;;;;;;;;;;;;;;17.43;65.54;100887.19;4949571;28;20308;-88
2023/10/20 07:02:16;;;;;;;;;;;;;;;17.45;65.48;100879.34;4951290;28;20359;-87
2023/10/20 07:04:41;;;;;;;;;;;;;;;17.43;65.73;100875.75;4949399;28;20016;-86
2023/10/20 07:07:12;;;;;;;;;;;;;;;17.44;65.64;100872.25;4948324;28;19921;-87
2023/10/20 07:09:38;;;;;;;;;;;;;;;17.43;65.69;100884.56;4948793;28;20326;-87
2023/10/20 07:12:03;;;;;;;;;;;;;;;17.47;65.85;100886.44;4946733;28;20388;-85
2023/10/20 07:14:29;;;;;;;;;;;;;;;17.44;65.70;100881.09;4965920;28;19966;-88
2023/10/20 07:16:55;;;;;;;;;;;;;;;17.47;65.59;100878.53;4945802;28;19923;-87
2023/10/20 07:19:21;;;;;;;;;;;;;;;17.52;65.50;100868.06;4945263;28;20462;-88
2023/10/20 07:21:48;;;;;;;;;;;;;;;17.55;65.46;100859.38;4952589;28;19922;-88
2023/10/20 07:24:14;;;;;;;;;;;;;;;17.56;65.37;100866.44;4952162;28;19959;-89
2023/10/20 07:26:43;;;;;;;;;;;;;;;17.50;65.38;100854.84;4948413;28;19918;-88
2023/10/20 07:29:08;;;;;;;;;;;;;;;17.49;65.92;100868.00;4933284;28;20109;-89
2023/10/20 07:31:37;;;;;;;;;;;;;;;17.54;65.52;100863.72;4933403;28;20005;-90
2023/10/20 07:34:04;;;;;;;;;;;;;;;17.55;65.82;100870.81;4946632;28;19981;-89
2023/10/20 07:36:31;;;;;;;;;;;;;;;17.53;65.79;100863.72;4948181;29;19919;-89
2023/10/20 07:38:56;;;;;;;;;;;;;;;17.55;65.73;100860.25;4934373;28;19928;-88
2023/10/20 07:41:21;;;;;;;;;;;;;;;17.59;65.43;100854.22;4971028;28;19918;-88
2023/10/20 07:43:48;;;;;;;;;;;;;;;17.52;65.85;100854.88;4964586;28;20028;-88
2023/10/20 07:46:14;;;;;;;;;;;;;;;17.57;65.66;100858.56;4954104;29;19919;-86
2023/10/20 07:48:42;;;;;;;;;;;;;;;17.63;65.43;100860.44;4949581;28;19922;-89
2023/10/20 07:51:07;;;;;;;;;;;;;;;17.60;65.38;100868.28;4945331;28;20418;-88
2023/10/20 07:53:32;;;;;;;;;;;;;;;17.62;65.20;100869.22;4956103;28;20355;-87
2023/10/20 07:55:58;;;;;;;;;;;;;;;17.56;65.64;100864.66;4956658;28;19918;-86
2023/10/20 07:58:23;;;;;;;;;;;;;;;17.64;65.39;100864.88;4974786;28;19942;-88
2023/10/20 08:00:50;;;;;;;;;;;;;;;17.56;65.76;100854.09;4947628;28;20370;-87
2023/10/20 08:03:17;;;;;;;;;;;;;;;17.61;65.97;100851.59;4961990;28;19918;-86
2023/10/20 08:05:43;;;;;;;;;;;;;;;17.60;65.50;100855.97;4961962;28;19922;-88
2023/10/20 08:08:10;;;;;;;;;;;;;;;17.62;65.49;100853.38;4948887;28;20012;-87
2023/10/20 08:10:36;;;;;;;;;;;;;;;17.55;65.87;100852.34;4968380;28;19914;-87
2023/10/20 08:13:02;;;;;;;;;;;;;;;17.81;67.62;100853.00;4951441;28;19914;-87
2023/10/20 08:15:31;;;;;;;;;;;;;;;17.77;66.52;100850.25;4948512;28;20311;-89
2023/10/20 08:17:56;;;;;;;;;;;;;;;17.67;66.17;100851.75;4955197;28;19988;-88
2023/10/20 08:20:22;;;;;;;;;;;;;;;17.66;65.71;100855.25;4938067;28;19914;-88
2023/10/20 08:22:51;;;;;;;;;;;;;;;17.65;65.93;100845.53;4944285;28;19922;-89
2023/10/20 08:25:17;;;;;;;;;;;;;;;17.63;65.97;100850.81;4951612;28;19918;-87
2023/10/20 08:27:45;;;;;;;;;;;;;;;17.62;65.57;100856.91;4942218;28;19920;-88
2023/10/20 08:30:11;;;;;;;;;;;;;;;17.62;65.54;100840.19;4945436;28;19915;-87
2023/10/20 08:32:39;;;;;;;;;;;;;;;17.61;65.32;100848.94;4932011;28;19957;-88
2023/10/20 08:35:08;;;;;;;;;;;;;;;17.65;65.47;100851.72;4972777;28;19981;-87
2023/10/20 08:37:33;;;;;;;;;;;;;;;17.65;65.29;100862.28;4955456;28;19922;-88
2023/10/20 08:39:59;;;;;;;;;;;;;;;17.65;65.58;100864.03;4947485;28;19941;-89
2023/10/20 08:42:25;;;;;;;;;;;;;;;17.64;65.47;100867.53;4963899;28;19918;-89
2023/10/20 08:44:51;;;;;;;;;;;;;;;17.65;65.34;100866.66;4949025;28;19925;-88
2023/10/20 08:47:16;;;;;;;;;;;;;;;17.66;65.29;100856.16;4944155;28;19919;-88
2023/10/20 08:49:45;;;;;;;;;;;;;;;17.69;65.48;100861.53;4953495;28;19919;-88
2023/10/20 08:52:11;;;;;;;;;;;;;;;17.68;65.27;100854.44;4937604;28;20064;-87
2023/10/20 08:54:37;;;;;;;;;;;;;;;17.66;65.31;100853.50;4959966;28;20570;-87
2023/10/20 08:57:05;;;;;;;;;;;;;;;17.70;65.42;100844.81;4954197;28;19918;-87
2023/10/20 08:59:35;;;;;;;;;;;;;;;17.73;65.05;100849.28;4973564;28;19914;-87
2023/10/20 09:02:02;;;;;;;;;;;;;;;17.73;64.90;100858.94;4971411;28;19918;-88
2023/10/20 09:04:28;;;;;;;;;;;;;;;17.70;65.37;100852.72;4953161;28;19966;-86
2023/10/20 09:06:53;;;;;;;;;;;;;;;17.72;65.43;100851.91;4970014;28;19922;-87
2023/10/20 09:09:19;;;;;;;;;;;;;;;17.73;65.09;100846.63;4953112;28;20068;-87
2023/10/20 09:11:45;;;;;;;;;;;;;;;17.72;65.01;100844.88;4972274;28;20481;-88
2023/10/20 09:14:12;;;;;;;;;;;;;;;17.75;65.27;100844.94;4951548;28;19919;-87
2023/10/20 09:16:37;;;;;;;;;;;;;;;17.81;64.77;100844.19;4943539;28;20031;-87
2023/10/20 09:19:03;;;;;;;;;;;;;;;17.78;65.03;100842.38;4939675;28;19959;-87
2023/10/20 09:21:29;;;;;;;;;;;;;;;17.83;65.03;100840.78;4943334;28;19925;-86
2023/10/20 09:24:13;;;;;;;;;;;;;;;18.24;66.85;100840.88;4949866;28;20369;-93
2023/10/20 09:26:48;;;;;;;;;;;;;;;18.06;66.08;100840.47;4936690;28;19915;-92
2023/10/20 09:29:15;;;;;;;;;;;;;;;17.91;66.03;100833.06;4929503;29;20312;-91
2023/10/20 09:31:43;;;;;;;;;;;;;;;17.83;66.05;100837.25;4933908;29;20319;-94
2023/10/20 09:34:11;;;;;;;;;;;;;;;17.83;65.89;100834.59;4937872;29;19921;-89
2023/10/20 09:36:56;;;;;;;;;;;;;;;17.86;65.74;100822.38;4944749;28;20021;-91
2023/10/20 09:39:36;;;;;;;;;;;;;;;17.83;65.69;100829.31;4939083;29;19926;-91
2023/10/20 09:42:28;;;;;;;;;;;;;;;17.85;65.84;100827.63;4954124;29;20444;-92
2023/10/20 09:45:06;;;;;;;;;;;;;;;17.89;65.21;100832.13;4946152;29;19965;-89
2023/10/20 09:47:35;;;;;;;;;;;;;;;17.88;65.11;100825.91;4954371;28;20392;-90
2023/10/20 09:50:01;;;;;;;;;;;;;;;17.83;65.07;100816.09;4937319;29;19922;-87
2023/10/20 09:52:29;;;;;;;;;;;;;;;17.83;65.63;100827.56;4949781;29;19918;-89
2023/10/20 09:54:55;;;;;;;;;;;;;;;17.88;65.13;100828.56;4935180;29;19915;-89
2023/10/20 09:57:22;;;;;;;;;;;;;;;17.89;65.40;100829.47;4951705;29;19974;-90
2023/10/20 09:59:52;;;;;;;;;;;;;;;17.89;65.06;100825.06;4938469;28;19954;-90
2023/10/20 10:02:28;;;;;;;;;;;;;;;17.86;64.95;100819.72;4933120;28;19986;-89
2023/10/20 10:04:54;;;;;;;;;;;;;;;17.86;65.28;100814.44;4926889;29;19918;-89
2023/10/20 10:07:46;;;;;;;;;;;;;;;17.90;64.69;100804.81;4950421;28;20451;-89
2023/10/20 10:10:21;;;;;;;;;;;;;;;17.90;64.97;100802.19;4943896;28;19918;-90
2023/10/20 10:12:57;;;;;;;;;;;;;;;17.94;64.85;100792.59;4928936;29;19949;-92
2023/10/20 10:15:49;;;;;;;;;;;;;;;17.92;64.79;100791.66;4936859;29;20459;-92
2023/10/20 10:18:15;;;;;;;;;;;;;;;17.99;64.75;100781.28;4939552;28;19927;-91
2023/10/20 10:23:43;;;;;;;;;;;;;;;17.93;64.63;100777.59;4954025;29;20010;-90
2023/10/20 10:26:13;;;;;;;;;;;;;;;17.90;64.71;100773.13;4936038;29;19922;-81
2023/10/20 10:28:47;;;;;;;;;;;;;;;17.95;64.77;100775.88;4950710;28;20289;-85
2023/10/20 10:31:12;;;;;;;;;;;;;;;17.94;64.61;100768.81;4942701;29;19965;-81
2023/10/20 10:33:38;;;;;;;;;;;;;;;17.96;64.68;100764.47;4938599;29;20506;-82
2023/10/20 10:36:09;;;;;;;;;;;;;;;18.00;64.54;100758.41;4948200;29;19918;-83
2023/10/20 10:38:43;;;;;;;;;;;;;;;18.02;64.57;100747.00;4951700;29;20307;-82
2023/10/20 10:41:08;;;;;;;;;;;;;;;17.96;64.62;100744.22;4947224;28;19921;-83
2023/10/20 10:43:33;;;;;;;;;;;;;;;17.94;64.64;100745.94;4948419;29;19922;-83
2023/10/20 10:45:59;;;;;;;;;;;;;;;17.97;64.58;100753.03;4932617;29;19958;-82
2023/10/20 10:48:25;;;;;;;;;;;;;;;18.64;65.02;100754.53;4938590;29;19953;-83
2023/10/20 10:50:51;;;;;;;;;;;;;;;18.45;64.72;100739.13;4943225;28;20320;-82
2023/10/20 10:53:16;;;;;;;;;;;;;;;18.30;65.04;100739.69;4949767;29;19925;-82
2023/10/20 10:55:42;;;;;;;;;;;;;;;18.22;64.77;100723.66;4941997;29;19922;-81
2023/10/20 10:58:08;;;;;;;;;;;;;;;18.38;64.31;100727.53;4949295;29;19919;-82
2023/10/20 11:00:34;;;;;;;;;;;;;;;18.23;65.61;100733.38;4942563;28;19919;-83
2023/10/20 11:03:00;;;;;;;;;;;;;;;18.17;64.98;100724.44;4940872;29;19922;-82
2023/10/20 11:05:25;;;;;;;;;;;;;;;18.09;64.99;100726.88;4943007;29;20308;-83
2023/10/20 11:08:03;;;;;;;;;;;;;;;18.16;65.16;100728.84;4934555;28;20043;-83
2023/10/20 11:10:34;;;;;;;;;;;;;;;18.19;64.92;100720.97;4945990;29;19946;-83
2023/10/20 11:13:00;;;;;;;;;;;;;;;18.15;65.01;100713.81;4947137;28;19918;-82
2023/10/20 11:15:28;;;;;;;;;;;;;;;18.18;65.26;100713.91;4948899;29;20435;-83
2023/10/20 11:17:57;;;;;;;;;;;;;;;18.19;65.08;100712.16;4961337;28;20319;-82
2023/10/20 11:20:23;;;;;;;;;;;;;;;18.18;65.22;100718.28;4975275;28;19914;-83
2023/10/20 11:22:52;;;;;;;;;;;;;;;18.21;64.91;100724.53;4975567;28;19925;-83
2023/10/20 11:25:18;;;;;;;;;;;;;;;18.19;64.99;100723.59;4927296;28;19914;-83
2023/10/20 11:27:46;;;;;;;;;;;;;;;18.22;65.25;100720.13;4964919;28;19924;-84
2023/10/20 11:30:12;;;;;;;;;;;;;;;18.24;64.81;100711.34;4957207;28;19914;-84
2023/10/20 11:32:37;;;;;;;;;;;;;;;18.29;64.74;100707.09;4974675;28;19918;-84
2023/10/20 11:35:04;;;;;;;;;;;;;;;18.30;64.57;100711.50;4953884;28;19921;-82
2023/10/20 11:37:29;;;;;;;;;;;;;;;18.45;64.11;100712.69;4940288;28;19945;-83
2023/10/20 11:39:55;;;;;;;;;;;;;;;18.49;64.20;100711.91;4957850;28;20408;-83
2023/10/20 11:42:20;;;;;;;;;;;;;;;18.46;64.23;100718.03;4971355;28;19969;-83
2023/10/20 11:44:46;;;;;;;;;;;;;;;18.54;63.90;100714.63;4957769;28;19921;-82
2023/10/20 11:47:11;;;;;;;;;;;;;;;18.59;63.65;100713.00;4957575;28;19914;-83
2023/10/20 11:49:37;;;;;;;;;;;;;;;18.64;63.60;100701.63;4941698;28;19977;-82
2023/10/20 11:52:02;;;;;;;;;;;;;;;18.65;63.45;100721.06;4959550;28;19918;-82
2023/10/20 11:54:28;;;;;;;;;;;;;;;18.71;63.16;100710.56;4951089;28;19914;-82
2023/10/20 11:56:53;;;;;;;;;;;;;;;18.74;63.15;100715.06;4956405;28;19923;-84
2023/10/20 11:59:19;;;;;;;;;;;;;;;18.83;62.77;100720.53;4964397;28;19960;-83
2023/10/20 12:01:45;;;;;;;;;;;;;;;18.71;63.33;100708.84;4975005;28;19914;-83
2023/10/20 12:04:11;;;;;;;;;;;;;;;18.83;62.57;100715.25;4954389;28;19915;-82
2023/10/20 12:06:37;;;;;;;;;;;;;;;18.72;63.21;100723.84;4961680;28;20419;-83
2023/10/20 12:09:06;;;;;;;;;;;;;;;18.69;62.96;100714.97;4973456;28;19945;-83
2023/10/20 12:11:32;;;;;;;;;;;;;;;18.94;62.61;100723.41;4942699;29;19986;-84
2023/10/20 12:13:58;;;;;;;;;;;;;;;18.81;62.73;100715.22;4942947;28;19946;-82
2023/10/20 12:16:25;;;;;;;;;;;;;;;18.90;62.35;100701.25;4938184;29;19922;-81
2023/10/20 12:18:51;;;;;;;;;;;;;;;18.94;62.12;100704.88;4968941;28;19926;-84
2023/10/20 12:21:17;;;;;;;;;;;;;;;18.99;62.02;100701.47;4964632;28;19925;-85
2023/10/20 12:23:43;;;;;;;;;;;;;;;18.87;62.58;100695.94;4971430;28;19914;-84
2023/10/20 12:26:08;;;;;;;;;;;;;;;18.97;62.35;100695.25;4968413;28;20043;-84
2023/10/20 12:28:34;;;;;;;;;;;;;;;19.04;62.22;100686.53;4965652;28;19929;-84
2023/10/20 12:30:59;;;;;;;;;;;;;;;19.09;61.99;100687.53;4951711;28;20301;-84
2023/10/20 12:33:25;;;;;;;;;;;;;;;19.03;61.78;100675.94;4974107;28;20447;-84
2023/10/20 12:35:54;;;;;;;;;;;;;;;19.00;62.05;100673.22;4943755;28;19965;-84
2023/10/20 12:38:20;;;;;;;;;;;;;;;18.96;62.02;100682.88;4948026;29;19922;-83
2023/10/20 12:40:45;;;;;;;;;;;;;;;19.05;61.79;100693.63;4948528;28;19925;-83
2023/10/20 12:43:12;;;;;;;;;;;;;;;19.10;61.79;100683.13;4960816;28;19957;-82
2023/10/20 12:45:38;;;;;;;;;;;;;;;19.19;61.71;100685.91;4944429;28;19925;-84
2023/10/20 12:48:04;;;;;;;;;;;;;;;19.08;62.05;100682.22;4956474;28;19933;-84
2023/10/20 12:50:32;;;;;;;;;;;;;;;18.97;62.64;100681.13;4949660;29;19915;-83
2023/10/20 12:53:01;;;;;;;;;;;;;;;19.05;62.22;100679.47;4951827;28;19914;-83
2023/10/20 12:55:27;;;;;;;;;;;;;;;19.20;62.12;100671.84;4973734;28;19918;-83
2023/10/20 12:57:53;;;;;;;;;;;;;;;19.09;62.06;100673.38;4971178;28;19925;-82
2023/10/20 13:00:19;;;;;;;;;;;;;;;19.05;62.06;100675.09;4962871;28;19969;-83
2023/10/20 13:02:48;;;;;;;;;;;;;;;19.10;62.43;100668.13;4955674;28;19918;-83
2023/10/20 13:05:14;;;;;;;;;;;;;;;19.07;62.49;100676.03;4973174;28;19918;-82
2023/10/20 13:07:40;;;;;;;;;;;;;;;19.04;62.22;100683.00;4969404;28;20377;-83
2023/10/20 13:10:06;;;;;;;;;;;;;;;19.13;62.40;100691.09;4962801;28;20020;-82
2023/10/20 13:12:31;;;;;;;;;;;;;;;19.05;62.69;100671.53;4972789;28;20388;-83
2023/10/20 13:14:57;;;;;;;;;;;;;;;18.89;63.27;100675.69;4973342;28;19989;-82
2023/10/20 13:17:22;;;;;;;;;;;;;;;18.99;62.53;100680.28;4972756;28;20439;-82